METAR and TAF’s


Available data for KLBB from the past 2 hours
LUBBOCK, TX
Metar
KLBB 251653Z 01018G28KT 10SM FEW110 SCT250 07/M09 A3011 RMK AO2 PK WND 01029/1555 SLP189 T00671094

16:53 UTC

Wind: 10° 18kt

Visibility: 10 SM

Sky: FEW 11000 ft

Temp: 7 deg C / 44.6 deg F

Dewpoint: -9 deg C / 15.8 deg F

Pressure: 30.11 inHg

TAF
KLBB 251558Z 2516/2612 36016G26KT P6SM SCT250 FM252300 34022G32KT P6SM SCT110 FM260300 35020KT P6SM SCT250
Available data for KCVN from the past 2 hours
CLOVIS MUNI, NM
Metar
KCVN 251656Z AUTO 02017KT 10SM BKN050 03/M10 A3013 RMK AO2 SLP218 T00281100

16:56 UTC

Wind: 20° 17kt

Visibility: 10 SM

Sky: BKN 5000 ft

Temp: 3 deg C / 37.4 deg F

Dewpoint: -10 deg C / 14 deg F

Pressure: 30.13 inHg